createdAt,value
2018-09-19T00:00:39.472Z,23.12
2018-09-19T00:01:39.460Z,23.08
2018-09-19T00:02:39.470Z,23.08
2018-09-19T00:03:39.457Z,23.14
2018-09-19T00:04:39.426Z,23.14
2018-09-19T00:05:39.414Z,23.08
2018-09-19T00:06:39.404Z,23.14
2018-09-19T00:07:39.394Z,23.12
2018-09-19T00:08:39.423Z,23.12
2018-09-19T00:09:39.375Z,23.09
2018-09-19T00:10:39.359Z,23.15
2018-09-19T00:11:39.346Z,23.14
2018-09-19T00:12:39.340Z,23.11
2018-09-19T00:13:39.349Z,23.05
2018-09-19T00:14:39.332Z,23.15
2018-09-19T00:15:39.310Z,23.11
2018-09-19T00:16:39.292Z,23.08
2018-09-19T00:17:39.281Z,23.08
2018-09-19T00:18:39.292Z,23.09
2018-09-19T00:19:39.260Z,23.11
2018-09-19T00:20:39.259Z,23.08
2018-09-19T00:21:39.238Z,23.08
2018-09-19T00:22:39.227Z,23.11
2018-09-19T00:23:39.239Z,23.15
2018-09-19T00:24:39.204Z,23.17
2018-09-19T00:25:39.194Z,23.17
2018-09-19T00:26:39.204Z,23.19
2018-09-19T00:27:39.170Z,23.09
2018-09-19T00:28:39.180Z,23.07
2018-09-19T00:29:39.147Z,23.05
2018-09-19T00:30:39.138Z,23.17
2018-09-19T00:31:39.129Z,23.07
2018-09-19T00:32:39.125Z,23.14
2018-09-19T00:33:39.127Z,23.11
2018-09-19T00:34:39.095Z,23.12
2018-09-19T00:35:39.081Z,23.17
2018-09-19T00:36:39.072Z,23.09
2018-09-19T00:37:39.058Z,23.12
2018-09-19T00:38:39.080Z,23.14
2018-09-19T00:39:39.038Z,23.09
2018-09-19T00:40:39.028Z,23.12
2018-09-19T00:41:39.015Z,23.12
2018-09-19T00:42:39.008Z,23.12
2018-09-19T00:43:39.018Z,23.14
2018-09-19T00:44:38.991Z,23.05
2018-09-19T00:45:38.979Z,23.04
2018-09-19T00:46:38.959Z,23.12
2018-09-19T00:47:38.950Z,23.07
2018-09-19T00:48:38.959Z,23.09
2018-09-19T00:49:38.925Z,23.11
2018-09-19T00:50:38.940Z,23.01
2018-09-19T00:51:38.904Z,23.14
2018-09-19T00:52:38.894Z,23.12
2018-09-19T00:53:38.901Z,23.09
2018-09-19T00:54:38.870Z,23.04
2018-09-19T00:55:38.883Z,23.11
2018-09-19T00:56:38.879Z,23.12
2018-09-19T00:57:38.837Z,23.12
2018-09-19T00:58:38.847Z,23.07
2018-09-19T00:59:38.815Z,23.09
2018-09-19T01:00:38.802Z,23.05
2018-09-19T01:01:38.802Z,23.09
2018-09-19T01:02:38.803Z,23.11
2018-09-19T01:03:38.792Z,23.12
2018-09-19T01:04:38.761Z,23.08
2018-09-19T01:05:38.751Z,23.04
2018-09-19T01:06:38.736Z,23.05
2018-09-19T01:07:38.729Z,23.11
2018-09-19T01:08:38.748Z,23.07
2018-09-19T01:09:38.716Z,23.09
2018-09-19T01:10:38.691Z,23.09
2018-09-19T01:11:38.683Z,23.14
2018-09-19T01:12:38.673Z,23.05
2018-09-19T01:13:38.680Z,23.07
2018-09-19T01:14:38.661Z,23.08
2018-09-19T01:15:38.639Z,23.04
2018-09-19T01:16:38.628Z,23.09
2018-09-19T01:17:38.635Z,23.09
2018-09-19T01:18:38.603Z,23.09
2018-09-19T01:19:38.630Z,23.08
2018-09-19T01:20:38.581Z,23.07
2018-09-19T01:21:38.581Z,23.07
2018-09-19T01:22:38.560Z,23.09
2018-09-19T01:23:38.551Z,23.08
2018-09-19T01:24:38.560Z,23.07
2018-09-19T01:25:38.536Z,23.09
2018-09-19T01:26:38.515Z,23.02
2018-09-19T01:27:38.504Z,23.05
2018-09-19T01:28:38.492Z,23.05
2018-09-19T01:29:38.503Z,23.11
2018-09-19T01:30:38.470Z,23.07
2018-09-19T01:31:38.476Z,23.07
2018-09-19T01:32:38.448Z,23.05
2018-09-19T01:33:38.436Z,23.09
2018-09-19T01:34:38.449Z,23.04
2018-09-19T01:35:38.434Z,23.05
2018-09-19T01:36:38.402Z,23.09
2018-09-19T01:37:38.407Z,23.04
2018-09-19T01:38:38.383Z,23.09
2018-09-19T01:39:38.391Z,23.09
2018-09-19T01:40:38.359Z,23.09
2018-09-19T01:41:38.349Z,23.09
2018-09-19T01:42:38.387Z,23.02
2018-09-19T01:43:38.336Z,23.09
2018-09-19T01:44:38.337Z,23.05
2018-09-19T01:45:38.305Z,23.07
2018-09-19T01:46:38.293Z,23.07
2018-09-19T01:47:38.284Z,23.07
2018-09-19T01:48:38.272Z,23.12
2018-09-19T01:49:38.299Z,23.05
2018-09-19T01:50:38.248Z,23.04
2018-09-19T01:51:38.237Z,23.07
2018-09-19T01:52:38.224Z,23.09
2018-09-19T01:53:38.216Z,23.05
2018-09-19T01:54:38.228Z,23.07
2018-09-19T01:55:38.201Z,23.05
2018-09-19T01:56:38.180Z,23.08
2018-09-19T01:57:38.168Z,23.05
2018-09-19T01:58:38.161Z,23.05
2018-09-19T01:59:38.170Z,23.04
2018-09-19T02:00:38.141Z,23.11
2018-09-19T02:01:38.143Z,23.14
2018-09-19T02:02:38.137Z,23.05
2018-09-19T02:03:38.104Z,23.11
2018-09-19T02:04:38.115Z,23.08
2018-09-19T02:05:38.079Z,23.05
2018-09-19T02:06:38.068Z,23.08
2018-09-19T02:07:38.073Z,23.05
2018-09-19T02:08:38.069Z,23.04
2018-09-19T02:09:38.057Z,23.02
2018-09-19T02:10:38.025Z,23.04
2018-09-19T02:11:38.013Z,23.14
2018-09-19T02:12:38.004Z,23.07
2018-09-19T02:13:38.023Z,23.14
2018-09-19T02:14:38.006Z,23.05
2018-09-19T02:15:37.968Z,23.08
2018-09-19T02:16:37.957Z,23.14
2018-09-19T02:17:37.950Z,23.04
2018-09-19T02:18:37.937Z,23.12
2018-09-19T02:19:37.956Z,23.02
2018-09-19T02:20:37.918Z,23.08
2018-09-19T02:21:37.904Z,23.04
2018-09-19T02:22:37.891Z,23.04
2018-09-19T02:23:37.880Z,23.09
2018-09-19T02:24:37.890Z,23.02
2018-09-19T02:25:37.875Z,23.07
2018-09-19T02:26:37.847Z,23.04
2018-09-19T02:27:37.843Z,23.01
2018-09-19T02:28:37.923Z,22.99
2018-09-19T02:29:37.834Z,23.01
2018-09-19T02:30:37.804Z,23.04
2018-09-19T02:31:37.804Z,23.04
2018-09-19T02:32:37.784Z,23.01
2018-09-19T02:33:37.792Z,23.05
2018-09-19T02:34:37.761Z,23.05
2018-09-19T02:35:37.770Z,23.04
2018-09-19T02:36:37.735Z,23.09
2018-09-19T02:37:37.732Z,23.02
2018-09-19T02:38:37.731Z,23.05
2018-09-19T02:39:37.702Z,23.01
2018-09-19T02:40:37.713Z,23.01
2018-09-19T02:41:37.683Z,23.04
2018-09-19T02:42:37.679Z,23.02
2018-09-19T02:43:37.672Z,23.04
2018-09-19T02:44:37.646Z,23.12
2018-09-19T02:45:37.659Z,23.02
2018-09-19T02:46:37.630Z,23.12
2018-09-19T02:47:37.613Z,23.01
2018-09-19T02:48:37.602Z,23.02
2018-09-19T02:49:37.606Z,22.99
2018-09-19T02:50:37.601Z,23.05
2018-09-19T02:51:37.568Z,23.04
2018-09-19T02:52:37.558Z,23.05
2018-09-19T02:53:37.546Z,23.11
2018-09-19T02:54:37.537Z,23.07
2018-09-19T02:55:37.557Z,23.05
2018-09-19T02:56:37.512Z,23.05
2018-09-19T02:57:37.502Z,23.05
2018-09-19T02:58:37.491Z,23.05
2018-09-19T02:59:37.481Z,22.97
2018-09-19T03:00:37.490Z,22.94
2018-09-19T03:01:37.476Z,23.02
2018-09-19T03:02:37.446Z,23.02
2018-09-19T03:03:37.435Z,23.01
2018-09-19T03:04:37.424Z,23.01
2018-09-19T03:05:37.436Z,23.02
2018-09-19T03:06:37.402Z,23.02
2018-09-19T03:07:37.403Z,22.99
2018-09-19T03:08:37.383Z,23.02
2018-09-19T03:09:37.373Z,22.99
2018-09-19T03:10:37.379Z,23.05
2018-09-19T03:11:37.348Z,23.08
2018-09-19T03:12:37.335Z,22.92
2018-09-19T03:13:37.336Z,23.07
2018-09-19T03:14:37.313Z,23.05
2018-09-19T03:15:37.326Z,22.93
2018-09-19T03:16:37.290Z,22.92
2018-09-19T03:17:37.443Z,23.05
2018-09-19T03:18:37.270Z,23.01
2018-09-19T03:19:37.272Z,23.05
2018-09-19T03:20:37.270Z,22.97
2018-09-19T03:21:37.235Z,23.02
2018-09-19T03:22:37.223Z,22.97
2018-09-19T03:23:37.235Z,23.02
2018-09-19T03:24:37.210Z,22.99
2018-09-19T03:25:37.206Z,22.99
2018-09-19T03:26:37.202Z,23.01
2018-09-19T03:27:37.169Z,22.92
2018-09-19T03:28:37.157Z,22.93
2018-09-19T03:29:37.146Z,22.93
2018-09-19T03:30:37.138Z,22.93
2018-09-19T03:31:37.158Z,22.93
2018-09-19T03:32:37.118Z,23.05
2018-09-19T03:33:37.104Z,22.94
2018-09-19T03:34:37.091Z,22.90
2018-09-19T03:35:37.081Z,22.99
2018-09-19T03:36:37.092Z,22.93
2018-09-19T03:37:37.072Z,23.05
2018-09-19T03:38:37.047Z,22.93
2018-09-19T03:39:37.037Z,22.93
2018-09-19T03:40:37.065Z,22.94
2018-09-19T03:41:37.039Z,22.93
2018-09-19T03:42:37.000Z,22.97
2018-09-19T03:43:37.003Z,22.96
2018-09-19T03:44:36.983Z,22.93
2018-09-19T03:45:36.986Z,22.93
2018-09-19T03:46:36.978Z,22.93
2018-09-19T03:47:36.945Z,22.94
2018-09-19T03:48:36.934Z,23.05
2018-09-19T03:49:36.930Z,22.93
2018-09-19T03:50:36.912Z,22.94
2018-09-19T03:51:36.926Z,22.96
2018-09-19T03:52:36.889Z,22.92
2018-09-19T03:53:36.877Z,22.90
2018-09-19T03:54:36.867Z,22.93
2018-09-19T03:55:36.869Z,22.90
2018-09-19T03:56:36.868Z,22.90
2018-09-19T03:57:36.835Z,22.94
2018-09-19T03:58:36.828Z,22.94
2018-09-19T03:59:36.812Z,22.92
2018-09-19T04:00:36.801Z,22.93
2018-09-19T04:01:36.824Z,22.93
2018-09-19T04:02:36.779Z,22.96
2018-09-19T04:03:36.767Z,22.94
2018-09-19T04:04:36.757Z,22.93
2018-09-19T04:05:36.745Z,22.96
2018-09-19T04:06:36.755Z,22.96
2018-09-19T04:07:36.745Z,22.93
2018-09-19T04:08:36.711Z,23.02
2018-09-19T04:09:36.703Z,22.99
2018-09-19T04:10:36.692Z,22.90
2018-09-19T04:11:36.700Z,23.01
2018-09-19T04:12:36.667Z,22.94
2018-09-19T04:13:36.669Z,22.94
2018-09-19T04:14:36.643Z,22.93
2018-09-19T04:15:36.633Z,22.97
2018-09-19T04:16:36.643Z,22.93
2018-09-19T04:17:36.648Z,22.97
2018-09-19T04:18:36.610Z,23.01
2018-09-19T04:19:36.590Z,22.96
2018-09-19T04:20:36.580Z,22.87
2018-09-19T04:21:36.595Z,22.93
2018-09-19T04:22:36.556Z,22.96
2018-09-19T04:23:36.544Z,22.99
2018-09-19T04:24:36.543Z,23.02
2018-09-19T04:25:36.529Z,22.93
2018-09-19T04:26:36.532Z,23.01
2018-09-19T04:27:36.500Z,22.97
2018-09-19T04:28:36.493Z,22.92
2018-09-19T04:29:36.478Z,22.97
2018-09-19T04:30:36.477Z,22.92
2018-09-19T04:31:36.477Z,23.02
2018-09-19T04:32:36.444Z,22.93
2018-09-19T04:33:36.435Z,22.92
2018-09-19T04:34:36.432Z,22.92
2018-09-19T04:35:36.411Z,22.99
2018-09-19T04:36:36.436Z,22.93
2018-09-19T04:37:36.388Z,23.01
2018-09-19T04:38:36.380Z,22.94
2018-09-19T04:39:36.367Z,22.97
2018-09-19T04:40:36.361Z,22.97
2018-09-19T04:41:36.368Z,23.01
2018-09-19T04:42:36.350Z,22.90
2018-09-19T04:43:36.323Z,22.93
2018-09-19T04:44:36.315Z,22.97
2018-09-19T04:45:36.299Z,22.93
2018-09-19T04:46:36.314Z,22.94
2018-09-19T04:47:36.278Z,22.92
2018-09-19T04:48:36.276Z,22.99
2018-09-19T04:49:36.269Z,22.84
2018-09-19T04:50:36.251Z,22.90
2018-09-19T04:51:36.353Z,22.94
2018-09-19T04:52:36.224Z,22.97
2018-09-19T04:53:36.218Z,22.90
2018-09-19T04:54:36.237Z,22.92
2018-09-19T04:55:36.188Z,22.93
2018-09-19T04:56:36.176Z,22.89
2018-09-19T04:57:36.187Z,22.89
2018-09-19T04:58:36.157Z,22.92
2018-09-19T04:59:36.144Z,22.94
2018-09-19T05:00:36.141Z,22.94
2018-09-19T05:01:36.122Z,22.99
2018-09-19T05:02:36.135Z,22.89
2018-09-19T05:03:36.098Z,22.93
2018-09-19T05:04:36.089Z,22.90
2018-09-19T05:05:36.130Z,22.93
2018-09-19T05:06:36.082Z,22.92
2018-09-19T05:07:36.077Z,22.94
2018-09-19T05:08:36.047Z,22.92
2018-09-19T05:09:36.072Z,22.87
2018-09-19T05:10:36.027Z,22.94
2018-09-19T05:11:36.010Z,22.94
2018-09-19T05:12:36.246Z,22.89
2018-09-19T05:13:35.990Z,22.87
2018-09-19T05:14:35.976Z,22.82
2018-09-19T05:15:35.966Z,22.87
2018-09-19T05:16:35.953Z,22.77
2018-09-19T05:17:35.963Z,22.64
2018-09-19T05:18:35.937Z,22.53
2018-09-19T05:19:35.929Z,22.39
2018-09-19T05:20:35.915Z,22.32
2018-09-19T05:21:35.897Z,22.27
2018-09-19T05:22:35.913Z,22.16
2018-09-19T05:23:35.875Z,21.98
2018-09-19T05:24:35.863Z,22.02
2018-09-19T05:25:35.861Z,21.99
2018-09-19T05:26:35.846Z,21.81
2018-09-19T05:27:35.858Z,21.81
2018-09-19T05:28:35.826Z,21.72
2018-09-19T05:29:35.815Z,21.64
2018-09-19T05:30:35.798Z,21.57
2018-09-19T05:31:35.855Z,21.54
2018-09-19T05:32:35.795Z,21.50
2018-09-19T05:33:35.762Z,21.44
2018-09-19T05:34:35.759Z,21.46
2018-09-19T05:35:35.748Z,21.45
2018-09-19T05:36:35.730Z,21.45
2018-09-19T05:37:35.739Z,21.32
2018-09-19T05:38:35.708Z,21.41
2018-09-19T05:39:35.695Z,21.42
2018-09-19T05:40:35.690Z,21.35
2018-09-19T05:41:35.674Z,21.39
2018-09-19T05:42:35.691Z,21.45
2018-09-19T05:43:35.650Z,21.44
2018-09-19T05:44:35.640Z,21.42
2018-09-19T05:45:35.630Z,21.41
2018-09-19T05:46:35.657Z,21.42
2018-09-19T05:47:35.637Z,21.42
2018-09-19T05:48:35.598Z,21.42
2018-09-19T05:49:35.591Z,21.42
2018-09-19T05:50:35.584Z,21.45
2018-09-19T05:51:35.561Z,21.50
2018-09-19T05:52:35.570Z,21.53
2018-09-19T05:53:35.538Z,21.57
2018-09-19T05:54:35.639Z,21.54
2018-09-19T05:55:35.516Z,21.48
2018-09-19T05:56:35.509Z,21.45
2018-09-19T05:57:35.531Z,21.30
2018-09-19T05:58:35.484Z,21.34
2018-09-19T05:59:35.471Z,21.38
2018-09-19T06:00:35.577Z,21.36
2018-09-19T06:01:35.448Z,21.38
2018-09-19T06:02:35.478Z,21.42
2018-09-19T06:03:35.426Z,21.36
2018-09-19T06:04:35.414Z,21.41
2018-09-19T06:05:35.404Z,21.26
2018-09-19T06:06:35.393Z,21.29
2018-09-19T06:07:35.402Z,21.30
2018-09-19T06:08:35.418Z,21.29
2018-09-19T06:09:35.362Z,21.19
2018-09-19T06:10:35.358Z,21.26
2018-09-19T06:11:35.337Z,21.20
2018-09-19T06:12:35.346Z,21.11
2018-09-19T06:13:35.339Z,21.08
2018-09-19T06:14:35.302Z,21.11
2018-09-19T06:15:35.299Z,21.11
2018-09-19T06:16:35.287Z,21.05
2018-09-19T06:17:35.288Z,20.99
2018-09-19T06:18:35.260Z,20.90
2018-09-19T06:19:35.284Z,20.96
2018-09-19T06:20:35.237Z,20.90
2018-09-19T06:21:35.228Z,20.84
2018-09-19T06:22:35.237Z,20.83
2018-09-19T06:23:35.201Z,20.89
2018-09-19T06:24:35.191Z,20.81
2018-09-19T06:25:35.183Z,20.81
2018-09-19T06:26:35.168Z,20.76
2018-09-19T06:27:35.189Z,20.84
2018-09-19T06:28:35.147Z,20.72
2018-09-19T06:29:35.136Z,20.72
2018-09-19T06:30:35.127Z,20.79
2018-09-19T06:31:35.112Z,20.71
2018-09-19T06:32:35.122Z,20.80
2018-09-19T06:33:35.111Z,20.76
2018-09-19T06:34:35.088Z,20.72
2018-09-19T06:35:35.072Z,20.72
2018-09-19T06:36:35.065Z,20.81
2018-09-19T06:37:35.096Z,20.74
2018-09-19T06:38:35.034Z,20.86
2018-09-19T06:39:35.023Z,20.84
2018-09-19T06:40:35.149Z,20.79
2018-09-19T06:41:35.003Z,20.79
2018-09-19T06:42:34.991Z,20.81
2018-09-19T06:43:35.016Z,20.83
2018-09-19T06:44:34.968Z,20.83
2018-09-19T06:45:35.004Z,20.80
2018-09-19T06:46:34.947Z,20.87
2018-09-19T06:47:34.963Z,20.80
2018-09-19T06:48:34.944Z,20.80
2018-09-19T06:49:34.970Z,20.89
2018-09-19T06:50:34.903Z,20.91
2018-09-19T06:51:34.962Z,20.80
2018-09-19T06:52:34.968Z,20.91
2018-09-19T06:53:34.890Z,20.93
2018-09-19T06:54:34.856Z,20.89
2018-09-19T06:55:34.853Z,20.90
2018-09-19T06:56:34.833Z,20.84
2018-09-19T06:57:34.840Z,20.96
2018-09-19T06:58:34.836Z,20.91
2018-09-19T06:59:34.853Z,20.98
2018-09-19T07:00:34.789Z,21.01
2018-09-19T07:01:34.777Z,21.09
2018-09-19T07:02:34.767Z,20.99
2018-09-19T07:03:34.851Z,21.08
2018-09-19T07:04:34.751Z,21.13
2018-09-19T07:05:34.763Z,21.16
2018-09-19T07:06:34.728Z,21.13
2018-09-19T07:07:34.711Z,21.26
2018-09-19T07:08:34.723Z,21.21
2018-09-19T07:09:34.711Z,21.30
2018-09-19T07:10:34.712Z,21.32
2018-09-19T07:11:34.688Z,21.34
2018-09-19T07:12:34.657Z,21.38
2018-09-19T07:13:34.663Z,21.38
2018-09-19T07:14:34.638Z,21.38
2018-09-19T07:15:34.632Z,21.44
2018-09-19T07:16:34.610Z,21.50
2018-09-19T07:17:34.599Z,21.50
2018-09-19T07:18:34.606Z,21.54
2018-09-19T07:19:34.583Z,21.59
2018-09-19T07:20:34.587Z,21.61
2018-09-19T07:21:34.552Z,21.67
2018-09-19T07:22:34.542Z,21.63
2018-09-19T07:23:34.554Z,21.63
2018-09-19T07:24:34.519Z,21.69
2018-09-19T07:25:34.510Z,21.66
2018-09-19T07:26:34.503Z,21.72
2018-09-19T07:27:34.486Z,21.76
2018-09-19T07:28:34.522Z,21.76
2018-09-19T07:29:34.464Z,21.81
2018-09-19T07:30:34.451Z,21.90
2018-09-19T07:31:34.448Z,21.81
2018-09-19T07:32:34.478Z,21.78
2018-09-19T07:33:34.443Z,21.76
2018-09-19T07:34:34.407Z,21.81
2018-09-19T07:35:34.420Z,21.82
2018-09-19T07:36:34.408Z,21.69
2018-09-19T07:37:34.377Z,21.74
2018-09-19T07:38:34.381Z,21.78
2018-09-19T07:39:34.352Z,21.83
2018-09-19T07:40:34.358Z,21.79
2018-09-19T07:41:34.345Z,21.83
2018-09-19T07:42:34.320Z,21.90
2018-09-19T07:43:34.427Z,21.90
2018-09-19T07:44:34.294Z,21.79
2018-09-19T07:45:34.283Z,21.88
2018-09-19T07:46:34.339Z,21.95
2018-09-19T07:47:34.311Z,21.98
2018-09-19T07:48:34.274Z,21.98
2018-09-19T07:49:34.238Z,21.99
2018-09-19T07:50:34.271Z,22.06
2018-09-19T07:51:34.219Z,21.97
2018-09-19T07:52:34.205Z,22.01
2018-09-19T07:53:34.217Z,21.98
2018-09-19T07:54:34.213Z,21.98
2018-09-19T07:55:34.187Z,22.02
2018-09-19T07:56:34.160Z,21.98
2018-09-19T07:57:34.149Z,22.06
2018-09-19T07:58:34.160Z,22.04
2018-09-19T07:59:34.129Z,22.01
2018-09-19T08:00:34.210Z,22.07
2018-09-19T08:01:34.133Z,22.04
2018-09-19T08:02:34.092Z,22.12
2018-09-19T08:03:34.105Z,22.12
2018-09-19T08:04:34.072Z,22.19
2018-09-19T08:05:34.061Z,22.14
2018-09-19T08:06:34.057Z,22.13
2018-09-19T08:07:34.048Z,22.20
2018-09-19T08:08:34.049Z,22.12
2018-09-19T08:09:34.019Z,22.09
2018-09-19T08:10:34.007Z,22.20
2018-09-19T08:11:33.993Z,22.20
2018-09-19T08:12:33.992Z,22.17
2018-09-19T08:13:33.994Z,22.22
2018-09-19T08:14:33.968Z,22.19
2018-09-19T08:15:33.953Z,22.28
2018-09-19T08:16:33.936Z,22.27
2018-09-19T08:17:33.976Z,22.29
2018-09-19T08:18:33.915Z,22.31
2018-09-19T08:19:33.925Z,22.37
2018-09-19T08:20:33.896Z,22.41
2018-09-19T08:21:33.882Z,22.46
2018-09-19T08:22:33.949Z,22.56
2018-09-19T08:23:33.861Z,22.47
2018-09-19T08:24:33.892Z,22.56
2018-09-19T08:25:33.839Z,22.59
2018-09-19T08:26:33.824Z,22.57
2018-09-19T08:27:33.813Z,22.65
2018-09-19T08:28:33.802Z,22.68
2018-09-19T08:29:33.838Z,22.62
2018-09-19T08:30:33.788Z,22.69
2018-09-19T08:31:33.770Z,22.62
2018-09-19T08:32:33.760Z,22.64
2018-09-19T08:33:33.745Z,22.71
2018-09-19T08:34:33.756Z,22.75
2018-09-19T08:35:33.734Z,22.77
2018-09-19T08:36:33.716Z,22.80
2018-09-19T08:37:33.703Z,22.78
2018-09-19T08:38:33.687Z,22.86
2018-09-19T08:39:33.698Z,22.80
2018-09-19T08:40:33.668Z,22.80
2018-09-19T08:41:33.964Z,22.86
2018-09-19T08:42:33.644Z,22.78
2018-09-19T08:43:33.632Z,22.87
2018-09-19T08:44:33.664Z,22.78
2018-09-19T08:45:33.617Z,22.97
2018-09-19T08:46:33.599Z,22.90
2018-09-19T08:47:33.592Z,22.93
2018-09-19T08:48:33.576Z,22.97
2018-09-19T08:49:33.611Z,22.93
2018-09-19T08:50:33.581Z,23.05
2018-09-19T08:51:33.546Z,23.07
2018-09-19T08:52:33.563Z,23.11
2018-09-19T08:53:33.527Z,23.09
2018-09-19T08:54:33.529Z,23.14
2018-09-19T08:55:33.501Z,23.08
2018-09-19T08:56:33.490Z,23.08
2018-09-19T08:57:33.475Z,23.02
2018-09-19T08:58:33.466Z,23.07
2018-09-19T08:59:33.476Z,23.09
2018-09-19T09:00:33.475Z,23.08
2018-09-19T09:01:33.430Z,23.07
2018-09-19T09:02:33.420Z,23.12
2018-09-19T09:03:33.462Z,23.17
2018-09-19T09:04:33.416Z,23.11
2018-09-19T09:05:33.387Z,23.14
2018-09-19T09:06:33.384Z,23.05
2018-09-19T09:07:33.366Z,23.09
2018-09-19T09:08:33.354Z,23.20
2018-09-19T09:09:33.363Z,23.19
2018-09-19T09:10:33.331Z,23.24
2018-09-19T09:11:33.317Z,23.14
2018-09-19T09:12:33.366Z,23.27
2018-09-19T09:13:33.298Z,23.23
2018-09-19T09:14:33.308Z,23.27
2018-09-19T09:15:33.272Z,23.26
2018-09-19T09:16:33.272Z,23.23
2018-09-19T09:17:33.252Z,23.27
2018-09-19T09:18:33.240Z,23.23
2018-09-19T09:19:33.274Z,23.19
2018-09-19T09:20:33.235Z,23.24
2018-09-19T09:21:33.205Z,23.35
2018-09-19T09:22:33.194Z,23.29
2018-09-19T09:23:33.186Z,23.32
2018-09-19T09:24:33.194Z,23.39
2018-09-19T09:25:33.161Z,23.34
2018-09-19T09:26:33.156Z,23.34
2018-09-19T09:27:33.184Z,23.35
2018-09-19T09:28:33.150Z,23.34
2018-09-19T09:29:33.139Z,23.38
2018-09-19T09:30:33.148Z,23.43
2018-09-19T09:31:33.101Z,23.43
2018-09-19T09:32:33.082Z,23.43
2018-09-19T09:33:33.087Z,23.46
2018-09-19T09:34:33.080Z,23.49
2018-09-19T09:35:33.050Z,23.50
2018-09-19T09:36:33.038Z,23.52
2018-09-19T09:37:33.035Z,23.57
2018-09-19T09:38:33.021Z,23.57
2018-09-19T09:39:33.023Z,23.53
2018-09-19T09:40:33.114Z,23.52
2018-09-19T09:41:33.032Z,23.50
2018-09-19T09:42:32.973Z,23.61
2018-09-19T09:43:33.009Z,23.67
2018-09-19T09:44:32.985Z,23.64
2018-09-19T09:45:32.939Z,23.70
2018-09-19T09:46:32.926Z,23.68
2018-09-19T09:47:32.917Z,23.71
2018-09-19T09:48:32.902Z,23.65
2018-09-19T09:49:32.913Z,23.67
2018-09-19T09:50:32.890Z,23.76
2018-09-19T09:51:32.876Z,23.70
2018-09-19T09:52:32.860Z,23.77
2018-09-19T09:54:32.857Z,23.75
2018-09-19T09:55:32.825Z,23.86
2018-09-19T09:56:32.823Z,23.85
2018-09-19T09:57:32.804Z,23.82
2018-09-19T09:58:32.791Z,23.97
2018-09-19T09:59:32.783Z,23.92
2018-09-19T10:00:32.790Z,23.94
2018-09-19T10:01:32.759Z,24.05
2018-09-19T10:02:32.753Z,24.00
2018-09-19T10:03:32.736Z,24.01
2018-09-19T10:04:32.724Z,24.01
2018-09-19T10:05:32.735Z,24.02
2018-09-19T10:06:32.738Z,23.89
2018-09-19T10:07:32.690Z,24.04
2018-09-19T10:08:32.679Z,24.07
2018-09-19T10:09:32.699Z,24.04
2018-09-19T10:10:32.678Z,24.08
2018-09-19T10:11:32.661Z,24.01
2018-09-19T10:12:32.637Z,23.98
2018-09-19T10:13:32.659Z,23.97
2018-09-19T10:14:32.612Z,24.04
2018-09-19T10:15:32.625Z,23.98
2018-09-19T10:16:35.750Z,23.98
2018-09-19T10:17:32.832Z,23.98
2018-09-19T10:18:32.781Z,23.97
2018-09-19T10:19:32.586Z,24.02
2018-09-19T10:20:34.596Z,23.86
2018-09-19T10:21:33.624Z,23.92
2018-09-19T10:22:32.572Z,23.95
2018-09-19T10:23:32.792Z,23.87
2018-09-19T10:24:32.503Z,23.82
2018-09-19T10:25:32.512Z,23.87
2018-09-19T10:26:32.489Z,23.79
2018-09-19T10:27:32.467Z,23.85
2018-09-19T10:28:32.456Z,23.82
2018-09-19T10:29:32.497Z,23.77
2018-09-19T10:30:32.453Z,23.76
2018-09-19T10:31:32.436Z,23.82
2018-09-19T10:32:32.412Z,23.79
2018-09-19T10:33:32.402Z,23.76
2018-09-19T10:34:32.395Z,23.77
2018-09-19T10:35:32.456Z,23.75
2018-09-19T10:36:32.367Z,23.77
2018-09-19T10:37:32.371Z,23.75
2018-09-19T10:38:32.347Z,23.80
2018-09-19T10:39:32.333Z,23.80
2018-09-19T10:40:32.342Z,23.77
2018-09-19T10:41:32.311Z,23.76
2018-09-19T10:42:32.299Z,23.80
2018-09-19T10:43:32.291Z,23.76
2018-09-19T10:44:32.281Z,23.71
2018-09-19T10:45:32.288Z,23.75
2018-09-19T10:46:32.256Z,23.80
2018-09-19T10:47:32.248Z,23.82
2018-09-19T10:48:32.235Z,23.77
2018-09-19T10:49:32.341Z,23.77
2018-09-19T10:50:32.248Z,23.77
2018-09-19T10:51:32.198Z,23.76
2018-09-19T10:52:32.190Z,23.87
2018-09-19T10:53:32.185Z,23.85
2018-09-19T10:54:32.165Z,23.85
2018-09-19T10:55:32.175Z,23.76
2018-09-19T10:56:32.150Z,23.80
2018-09-19T10:57:32.132Z,23.79
2018-09-19T10:58:32.122Z,23.82
2018-09-19T10:59:32.108Z,23.76
2018-09-19T11:00:32.119Z,23.85
2018-09-19T11:01:32.087Z,23.83
2018-09-19T11:02:32.074Z,23.86
2018-09-19T11:03:32.064Z,23.89
2018-09-19T11:04:32.054Z,23.85
2018-09-19T11:05:32.063Z,23.83
2018-09-19T11:06:32.032Z,23.85
2018-09-19T11:07:32.044Z,23.87
2018-09-19T11:08:32.011Z,23.80
2018-09-19T11:09:32.000Z,23.85
2018-09-19T11:10:32.009Z,23.92
2018-09-19T11:11:31.974Z,23.90
2018-09-19T11:12:31.963Z,24.00
2018-09-19T11:13:31.960Z,23.98
2018-09-19T11:14:31.945Z,23.98
2018-09-19T11:15:31.951Z,23.94
2018-09-19T11:16:31.920Z,23.98
2018-09-19T11:17:31.912Z,23.95
2018-09-19T11:18:31.899Z,24.02
2018-09-19T11:19:31.890Z,23.95
2018-09-19T11:20:31.903Z,23.92
2018-09-19T11:21:31.875Z,23.94
2018-09-19T11:22:31.851Z,23.94
2018-09-19T11:23:31.841Z,24.02
2018-09-19T11:24:31.830Z,23.92
2018-09-19T11:25:31.839Z,23.95
2018-09-19T11:26:31.872Z,23.97
2018-09-19T11:27:31.798Z,23.98
2018-09-19T11:28:31.788Z,23.97
2018-09-19T11:29:31.774Z,23.94
2018-09-19T11:30:31.783Z,24.00
2018-09-19T11:31:31.756Z,23.98
2018-09-19T11:32:31.740Z,23.97
2018-09-19T11:33:31.741Z,23.90
2018-09-19T11:34:31.719Z,23.95
2018-09-19T11:35:31.727Z,23.90
2018-09-19T11:36:31.697Z,23.90
2018-09-19T11:37:31.686Z,23.97
2018-09-19T11:38:31.677Z,23.87
2018-09-19T11:39:31.668Z,23.87
2018-09-19T11:40:31.662Z,23.98
2018-09-19T11:41:31.689Z,23.97
2018-09-19T11:42:31.631Z,23.82
2018-09-19T11:43:31.619Z,23.92
2018-09-19T11:44:31.608Z,24.00
2018-09-19T11:45:31.597Z,23.95
2018-09-19T11:46:31.608Z,23.97
2018-09-19T11:47:31.625Z,23.98
2018-09-19T11:48:31.571Z,23.97
2018-09-19T11:49:31.553Z,24.00
2018-09-19T11:50:31.544Z,24.01
2018-09-19T11:51:31.551Z,24.08
2018-09-19T11:52:31.524Z,24.05
2018-09-19T11:53:31.530Z,23.95
2018-09-19T11:54:31.496Z,24.02
2018-09-19T11:55:31.526Z,24.07
2018-09-19T11:56:31.500Z,24.05
2018-09-19T11:57:31.464Z,24.08
2018-09-19T11:58:31.469Z,23.87
2018-09-19T11:59:31.444Z,24.00
2018-09-19T12:00:31.433Z,24.04
2018-09-19T12:01:31.451Z,23.97
2018-09-19T12:02:31.408Z,24.00
2018-09-19T12:03:31.407Z,24.04
2018-09-19T12:04:31.390Z,24.10
2018-09-19T12:05:31.388Z,24.02
2018-09-19T12:06:31.383Z,24.07
2018-09-19T12:07:31.353Z,23.95
2018-09-19T12:08:31.347Z,24.00
2018-09-19T12:09:31.333Z,23.98
2018-09-19T12:10:31.324Z,23.95
2018-09-19T12:11:31.342Z,24.01
2018-09-19T12:12:31.320Z,24.01
2018-09-19T12:13:31.290Z,23.98
2018-09-19T12:14:31.281Z,23.95
2018-09-19T12:15:31.332Z,24.04
2018-09-19T12:16:31.273Z,24.07
2018-09-19T12:17:31.243Z,24.02
2018-09-19T12:18:31.232Z,24.07
2018-09-19T12:19:31.272Z,24.02
2018-09-19T12:20:31.208Z,24.04
2018-09-19T12:21:31.219Z,24.01
2018-09-19T12:22:31.186Z,24.04
2018-09-19T12:23:31.176Z,24.07
2018-09-19T12:24:31.164Z,23.92
2018-09-19T12:25:31.159Z,24.04
2018-09-19T12:26:31.251Z,23.98
2018-09-19T12:27:31.129Z,24.00
2018-09-19T12:28:31.119Z,24.00
2018-09-19T12:29:31.111Z,24.07
2018-09-19T12:30:31.097Z,24.04
2018-09-19T12:31:31.105Z,23.92
2018-09-19T12:32:31.076Z,24.04
2018-09-19T12:33:31.063Z,24.08
2018-09-19T12:34:31.065Z,23.89
2018-09-19T12:35:31.042Z,24.08
2018-09-19T12:36:31.055Z,23.90
2018-09-19T12:37:31.044Z,23.97
2018-09-19T12:38:31.007Z,24.02
2018-09-19T12:39:31.046Z,24.04
2018-09-19T12:40:30.995Z,24.00
2018-09-19T12:41:30.997Z,24.02
2018-09-19T12:42:30.963Z,24.04
2018-09-19T12:43:30.955Z,23.95
2018-09-19T12:44:30.942Z,24.07
2018-09-19T12:45:30.930Z,23.90
2018-09-19T12:46:30.942Z,23.89
2018-09-19T12:47:30.920Z,24.07
2018-09-19T12:48:30.920Z,23.95
2018-09-19T12:49:30.885Z,24.00
2018-09-19T12:50:30.874Z,24.02
2018-09-19T12:51:30.883Z,24.02
2018-09-19T12:52:30.855Z,23.97
2018-09-19T12:53:30.842Z,24.05